sensor_id;sensor_type;location;lat;lon;timestamp;P1;durP1;ratioP1;P2;durP2;ratioP2
27025;SDS011;14565;48.626;8.978;2023-02-26T00:00:38;2.40;;;1.38;;
27025;SDS011;14565;48.626;8.978;2023-02-26T00:03:03;5.40;;;1.40;;
27025;SDS011;14565;48.626;8.978;2023-02-26T00:05:29;3.30;;;1.63;;
27025;SDS011;14565;48.626;8.978;2023-02-26T00:07:55;3.42;;;1.30;;
27025;SDS011;14565;48.626;8.978;2023-02-26T00:10:21;2.92;;;1.17;;
27025;SDS011;14565;48.626;8.978;2023-02-26T00:12:47;3.22;;;1.38;;
27025;SDS011;14565;48.626;8.978;2023-02-26T00:15:12;2.53;;;1.45;;
27025;SDS011;14565;48.626;8.978;2023-02-26T00:20:10;5.10;;;1.27;;
27025;SDS011;14565;48.626;8.978;2023-02-26T00:22:37;3.88;;;1.27;;
27025;SDS011;14565;48.626;8.978;2023-02-26T00:25:04;2.17;;;1.33;;
27025;SDS011;14565;48.626;8.978;2023-02-26T00:27:30;4.22;;;1.77;;
27025;SDS011;14565;48.626;8.978;2023-02-26T00:29:56;3.13;;;1.65;;
27025;SDS011;14565;48.626;8.978;2023-02-26T00:32:22;6.43;;;1.80;;
27025;SDS011;14565;48.626;8.978;2023-02-26T00:34:48;3.67;;;1.70;;
27025;SDS011;14565;48.626;8.978;2023-02-26T00:37:30;4.55;;;1.58;;
27025;SDS011;14565;48.626;8.978;2023-02-26T00:40:02;3.15;;;1.40;;
27025;SDS011;14565;48.626;8.978;2023-02-26T00:42:42;2.45;;;1.40;;
27025;SDS011;14565;48.626;8.978;2023-02-26T00:45:09;4.80;;;1.85;;
27025;SDS011;14565;48.626;8.978;2023-02-26T00:50:12;4.00;;;1.55;;
27025;SDS011;14565;48.626;8.978;2023-02-26T00:55:39;4.78;;;1.55;;
27025;SDS011;14565;48.626;8.978;2023-02-26T00:58:05;3.00;;;1.50;;
27025;SDS011;14565;48.626;8.978;2023-02-26T01:00:31;7.18;;;1.75;;
27025;SDS011;14565;48.626;8.978;2023-02-26T01:02:57;4.80;;;1.48;;
27025;SDS011;14565;48.626;8.978;2023-02-26T01:05:22;4.63;;;1.85;;
27025;SDS011;14565;48.626;8.978;2023-02-26T01:10:14;4.38;;;1.83;;
27025;SDS011;14565;48.626;8.978;2023-02-26T01:12:40;3.47;;;1.67;;
27025;SDS011;14565;48.626;8.978;2023-02-26T01:15:07;3.92;;;1.67;;
27025;SDS011;14565;48.626;8.978;2023-02-26T01:20:47;2.65;;;1.50;;
27025;SDS011;14565;48.626;8.978;2023-02-26T01:23:20;4.60;;;1.77;;
27025;SDS011;14565;48.626;8.978;2023-02-26T01:28:34;2.65;;;1.30;;
27025;SDS011;14565;48.626;8.978;2023-02-26T01:31:01;4.25;;;1.48;;
27025;SDS011;14565;48.626;8.978;2023-02-26T01:33:31;3.95;;;1.45;;
27025;SDS011;14565;48.626;8.978;2023-02-26T01:38:42;2.92;;;1.63;;
27025;SDS011;14565;48.626;8.978;2023-02-26T01:44:25;2.55;;;1.25;;
27025;SDS011;14565;48.626;8.978;2023-02-26T01:47:05;5.05;;;1.50;;
27025;SDS011;14565;48.626;8.978;2023-02-26T01:49:39;4.25;;;1.75;;
27025;SDS011;14565;48.626;8.978;2023-02-26T01:52:06;4.28;;;1.27;;
27025;SDS011;14565;48.626;8.978;2023-02-26T01:54:51;4.03;;;1.70;;
27025;SDS011;14565;48.626;8.978;2023-02-26T01:57:17;3.03;;;1.10;;
27025;SDS011;14565;48.626;8.978;2023-02-26T01:59:46;4.25;;;1.40;;
27025;SDS011;14565;48.626;8.978;2023-02-26T02:02:16;4.38;;;1.70;;
27025;SDS011;14565;48.626;8.978;2023-02-26T02:04:45;2.97;;;1.38;;
27025;SDS011;14565;48.626;8.978;2023-02-26T02:07:12;4.10;;;1.33;;
27025;SDS011;14565;48.626;8.978;2023-02-26T02:09:38;3.28;;;1.33;;
27025;SDS011;14565;48.626;8.978;2023-02-26T02:15:18;2.22;;;1.10;;
27025;SDS011;14565;48.626;8.978;2023-02-26T02:31:26;4.88;;;1.23;;
27025;SDS011;14565;48.626;8.978;2023-02-26T02:34:02;6.35;;;1.70;;
27025;SDS011;14565;48.626;8.978;2023-02-26T02:36:43;3.45;;;1.40;;
27025;SDS011;14565;48.626;8.978;2023-02-26T02:44:38;3.28;;;1.30;;
27025;SDS011;14565;48.626;8.978;2023-02-26T02:47:08;5.80;;;1.13;;
27025;SDS011;14565;48.626;8.978;2023-02-26T02:52:10;3.20;;;1.05;;
27025;SDS011;14565;48.626;8.978;2023-02-26T02:54:44;1.92;;;0.98;;
27025;SDS011;14565;48.626;8.978;2023-02-26T02:59:56;3.30;;;1.35;;
27025;SDS011;14565;48.626;8.978;2023-02-26T03:05:11;6.68;;;1.25;;
27025;SDS011;14565;48.626;8.978;2023-02-26T03:07:40;6.53;;;1.63;;
27025;SDS011;14565;48.626;8.978;2023-02-26T03:10:12;4.78;;;1.30;;
27025;SDS011;14565;48.626;8.978;2023-02-26T03:12:38;6.72;;;1.20;;
27025;SDS011;14565;48.626;8.978;2023-02-26T03:15:04;3.92;;;1.35;;
27025;SDS011;14565;48.626;8.978;2023-02-26T03:17:32;3.15;;;1.20;;
27025;SDS011;14565;48.626;8.978;2023-02-26T03:30:59;3.25;;;1.40;;
27025;SDS011;14565;48.626;8.978;2023-02-26T03:33:34;3.90;;;1.10;;
27025;SDS011;14565;48.626;8.978;2023-02-26T03:39:04;3.30;;;1.30;;
27025;SDS011;14565;48.626;8.978;2023-02-26T03:41:41;2.13;;;1.10;;
27025;SDS011;14565;48.626;8.978;2023-02-26T03:44:20;4.97;;;1.10;;
27025;SDS011;14565;48.626;8.978;2023-02-26T03:47:03;6.15;;;1.33;;
27025;SDS011;14565;48.626;8.978;2023-02-26T03:49:37;3.03;;;1.27;;
27025;SDS011;14565;48.626;8.978;2023-02-26T03:52:09;4.55;;;1.67;;
27025;SDS011;14565;48.626;8.978;2023-02-26T03:57:05;4.63;;;1.30;;
27025;SDS011;14565;48.626;8.978;2023-02-26T03:59:31;6.32;;;1.63;;
27025;SDS011;14565;48.626;8.978;2023-02-26T04:04:34;3.55;;;1.33;;
27025;SDS011;14565;48.626;8.978;2023-02-26T04:07:07;3.22;;;1.33;;
27025;SDS011;14565;48.626;8.978;2023-02-26T04:09:33;3.10;;;1.35;;
27025;SDS011;14565;48.626;8.978;2023-02-26T04:11:59;4.82;;;1.40;;
27025;SDS011;14565;48.626;8.978;2023-02-26T04:14:25;4.50;;;1.40;;
27025;SDS011;14565;48.626;8.978;2023-02-26T04:16:50;6.78;;;1.45;;
27025;SDS011;14565;48.626;8.978;2023-02-26T04:19:16;5.82;;;1.60;;
27025;SDS011;14565;48.626;8.978;2023-02-26T04:21:42;4.63;;;1.25;;
27025;SDS011;14565;48.626;8.978;2023-02-26T04:24:09;4.35;;;1.73;;
27025;SDS011;14565;48.626;8.978;2023-02-26T04:26:35;7.25;;;1.92;;
27025;SDS011;14565;48.626;8.978;2023-02-26T04:29:03;8.38;;;2.28;;
27025;SDS011;14565;48.626;8.978;2023-02-26T04:31:28;6.47;;;1.48;;
27025;SDS011;14565;48.626;8.978;2023-02-26T04:33:54;7.25;;;1.52;;
27025;SDS011;14565;48.626;8.978;2023-02-26T04:36:20;6.63;;;1.90;;
27025;SDS011;14565;48.626;8.978;2023-02-26T04:38:46;5.55;;;1.60;;
27025;SDS011;14565;48.626;8.978;2023-02-26T04:41:11;4.85;;;1.60;;
27025;SDS011;14565;48.626;8.978;2023-02-26T04:43:37;5.82;;;1.73;;
27025;SDS011;14565;48.626;8.978;2023-02-26T04:46:02;2.60;;;1.25;;
27025;SDS011;14565;48.626;8.978;2023-02-26T04:48:28;2.60;;;1.65;;
27025;SDS011;14565;48.626;8.978;2023-02-26T04:50:54;7.53;;;1.75;;
27025;SDS011;14565;48.626;8.978;2023-02-26T04:53:20;3.78;;;1.48;;
27025;SDS011;14565;48.626;8.978;2023-02-26T04:56:00;6.80;;;2.08;;
27025;SDS011;14565;48.626;8.978;2023-02-26T04:58:26;3.80;;;1.50;;
27025;SDS011;14565;48.626;8.978;2023-02-26T05:00:57;2.83;;;1.77;;
27025;SDS011;14565;48.626;8.978;2023-02-26T05:03:25;10.77;;;2.05;;
27025;SDS011;14565;48.626;8.978;2023-02-26T05:05:59;8.30;;;1.98;;
27025;SDS011;14565;48.626;8.978;2023-02-26T05:08:36;4.20;;;2.00;;
27025;SDS011;14565;48.626;8.978;2023-02-26T05:11:07;5.75;;;1.42;;
27025;SDS011;14565;48.626;8.978;2023-02-26T05:13:36;4.47;;;1.42;;
27025;SDS011;14565;48.626;8.978;2023-02-26T05:16:05;6.40;;;1.65;;
27025;SDS011;14565;48.626;8.978;2023-02-26T05:18:34;5.40;;;1.95;;
27025;SDS011;14565;48.626;8.978;2023-02-26T05:20:59;5.70;;;1.88;;
27025;SDS011;14565;48.626;8.978;2023-02-26T05:23:25;9.15;;;1.98;;
27025;SDS011;14565;48.626;8.978;2023-02-26T05:25:53;4.22;;;1.70;;
27025;SDS011;14565;48.626;8.978;2023-02-26T05:28:20;3.28;;;1.63;;
27025;SDS011;14565;48.626;8.978;2023-02-26T05:30:45;4.47;;;1.63;;
27025;SDS011;14565;48.626;8.978;2023-02-26T05:33:11;4.32;;;1.92;;
27025;SDS011;14565;48.626;8.978;2023-02-26T05:35:42;7.40;;;1.88;;
27025;SDS011;14565;48.626;8.978;2023-02-26T05:38:13;8.10;;;2.22;;
27025;SDS011;14565;48.626;8.978;2023-02-26T05:40:41;5.68;;;2.10;;
27025;SDS011;14565;48.626;8.978;2023-02-26T05:43:10;7.00;;;2.20;;
27025;SDS011;14565;48.626;8.978;2023-02-26T05:45:41;5.78;;;1.80;;
27025;SDS011;14565;48.626;8.978;2023-02-26T05:48:18;4.72;;;2.10;;
27025;SDS011;14565;48.626;8.978;2023-02-26T05:53:25;4.97;;;2.13;;
27025;SDS011;14565;48.626;8.978;2023-02-26T05:55:54;4.25;;;1.83;;
27025;SDS011;14565;48.626;8.978;2023-02-26T05:58:23;5.60;;;1.98;;
27025;SDS011;14565;48.626;8.978;2023-02-26T06:00:48;4.78;;;1.90;;
27025;SDS011;14565;48.626;8.978;2023-02-26T06:03:14;3.75;;;1.60;;
27025;SDS011;14565;48.626;8.978;2023-02-26T06:05:40;3.42;;;1.88;;
27025;SDS011;14565;48.626;8.978;2023-02-26T06:08:05;4.80;;;2.15;;
27025;SDS011;14565;48.626;8.978;2023-02-26T06:10:31;6.32;;;2.20;;
27025;SDS011;14565;48.626;8.978;2023-02-26T06:12:57;3.67;;;1.80;;
27025;SDS011;14565;48.626;8.978;2023-02-26T06:15:25;7.20;;;1.85;;
27025;SDS011;14565;48.626;8.978;2023-02-26T06:17:56;5.13;;;1.73;;
27025;SDS011;14565;48.626;8.978;2023-02-26T06:20:32;5.35;;;1.60;;
27025;SDS011;14565;48.626;8.978;2023-02-26T06:23:02;4.80;;;1.88;;
27025;SDS011;14565;48.626;8.978;2023-02-26T06:25:34;4.57;;;1.70;;
27025;SDS011;14565;48.626;8.978;2023-02-26T06:28:05;5.32;;;2.30;;
27025;SDS011;14565;48.626;8.978;2023-02-26T06:30:34;4.65;;;1.70;;
27025;SDS011;14565;48.626;8.978;2023-02-26T06:33:03;7.18;;;2.00;;
27025;SDS011;14565;48.626;8.978;2023-02-26T06:37:57;5.65;;;2.00;;
27025;SDS011;14565;48.626;8.978;2023-02-26T06:40:26;7.07;;;2.45;;
27025;SDS011;14565;48.626;8.978;2023-02-26T06:42:53;3.45;;;2.28;;
27025;SDS011;14565;48.626;8.978;2023-02-26T06:45:22;7.63;;;2.30;;
27025;SDS011;14565;48.626;8.978;2023-02-26T06:47:49;9.93;;;2.72;;
27025;SDS011;14565;48.626;8.978;2023-02-26T06:50:15;13.00;;;2.50;;
27025;SDS011;14565;48.626;8.978;2023-02-26T06:52:41;5.25;;;2.10;;
27025;SDS011;14565;48.626;8.978;2023-02-26T06:55:07;5.20;;;2.20;;
27025;SDS011;14565;48.626;8.978;2023-02-26T07:00:14;9.52;;;2.42;;
27025;SDS011;14565;48.626;8.978;2023-02-26T07:02:40;5.03;;;2.47;;
27025;SDS011;14565;48.626;8.978;2023-02-26T07:05:06;9.15;;;2.75;;
27025;SDS011;14565;48.626;8.978;2023-02-26T07:07:32;7.55;;;2.28;;
27025;SDS011;14565;48.626;8.978;2023-02-26T07:09:57;6.43;;;2.45;;
27025;SDS011;14565;48.626;8.978;2023-02-26T07:12:23;6.07;;;2.50;;
27025;SDS011;14565;48.626;8.978;2023-02-26T07:14:48;4.93;;;1.98;;
27025;SDS011;14565;48.626;8.978;2023-02-26T07:17:14;5.65;;;2.17;;
27025;SDS011;14565;48.626;8.978;2023-02-26T07:19:45;6.55;;;2.53;;
27025;SDS011;14565;48.626;8.978;2023-02-26T07:22:11;6.00;;;2.00;;
27025;SDS011;14565;48.626;8.978;2023-02-26T07:24:37;3.58;;;1.40;;
27025;SDS011;14565;48.626;8.978;2023-02-26T07:27:03;8.70;;;2.67;;
27025;SDS011;14565;48.626;8.978;2023-02-26T07:29:28;6.72;;;1.75;;
27025;SDS011;14565;48.626;8.978;2023-02-26T07:31:54;6.03;;;1.85;;
27025;SDS011;14565;48.626;8.978;2023-02-26T07:34:19;6.50;;;2.33;;
27025;SDS011;14565;48.626;8.978;2023-02-26T07:36:45;7.03;;;1.80;;
27025;SDS011;14565;48.626;8.978;2023-02-26T07:39:11;7.13;;;2.25;;
27025;SDS011;14565;48.626;8.978;2023-02-26T07:41:36;7.72;;;2.15;;
27025;SDS011;14565;48.626;8.978;2023-02-26T07:44:02;7.57;;;2.05;;
27025;SDS011;14565;48.626;8.978;2023-02-26T07:46:28;4.82;;;1.95;;
27025;SDS011;14565;48.626;8.978;2023-02-26T07:48:53;4.35;;;1.80;;
27025;SDS011;14565;48.626;8.978;2023-02-26T07:51:19;6.90;;;1.70;;
27025;SDS011;14565;48.626;8.978;2023-02-26T07:53:45;4.97;;;1.70;;
27025;SDS011;14565;48.626;8.978;2023-02-26T07:56:10;3.75;;;1.48;;
27025;SDS011;14565;48.626;8.978;2023-02-26T07:58:36;6.60;;;1.70;;
27025;SDS011;14565;48.626;8.978;2023-02-26T08:01:01;6.43;;;1.73;;
27025;SDS011;14565;48.626;8.978;2023-02-26T08:03:27;6.18;;;1.75;;
27025;SDS011;14565;48.626;8.978;2023-02-26T08:05:53;7.25;;;1.88;;
27025;SDS011;14565;48.626;8.978;2023-02-26T08:08:18;4.05;;;1.70;;
27025;SDS011;14565;48.626;8.978;2023-02-26T08:10:44;4.38;;;1.60;;
27025;SDS011;14565;48.626;8.978;2023-02-26T08:13:09;6.50;;;1.73;;
27025;SDS011;14565;48.626;8.978;2023-02-26T08:15:35;3.85;;;1.85;;
27025;SDS011;14565;48.626;8.978;2023-02-26T08:18:01;8.77;;;1.80;;
27025;SDS011;14565;48.626;8.978;2023-02-26T08:20:26;3.72;;;1.77;;
27025;SDS011;14565;48.626;8.978;2023-02-26T08:22:52;3.00;;;1.73;;
27025;SDS011;14565;48.626;8.978;2023-02-26T08:25:18;6.35;;;1.80;;
27025;SDS011;14565;48.626;8.978;2023-02-26T08:27:44;3.30;;;1.27;;
27025;SDS011;14565;48.626;8.978;2023-02-26T08:30:09;6.55;;;1.48;;
27025;SDS011;14565;48.626;8.978;2023-02-26T08:32:35;4.72;;;1.50;;
27025;SDS011;14565;48.626;8.978;2023-02-26T08:37:29;5.07;;;1.55;;
27025;SDS011;14565;48.626;8.978;2023-02-26T08:39:55;2.60;;;1.52;;
27025;SDS011;14565;48.626;8.978;2023-02-26T08:42:20;6.03;;;1.50;;
27025;SDS011;14565;48.626;8.978;2023-02-26T08:44:46;5.13;;;1.88;;
27025;SDS011;14565;48.626;8.978;2023-02-26T08:47:12;9.35;;;2.20;;
27025;SDS011;14565;48.626;8.978;2023-02-26T08:49:38;5.22;;;1.52;;
27025;SDS011;14565;48.626;8.978;2023-02-26T08:52:03;2.95;;;1.20;;
27025;SDS011;14565;48.626;8.978;2023-02-26T08:54:29;4.43;;;1.38;;
27025;SDS011;14565;48.626;8.978;2023-02-26T08:56:56;3.80;;;1.20;;
27025;SDS011;14565;48.626;8.978;2023-02-26T08:59:22;8.30;;;1.73;;
27025;SDS011;14565;48.626;8.978;2023-02-26T09:01:49;8.70;;;1.63;;
27025;SDS011;14565;48.626;8.978;2023-02-26T09:04:15;3.78;;;1.67;;
27025;SDS011;14565;48.626;8.978;2023-02-26T09:06:41;5.28;;;1.73;;
27025;SDS011;14565;48.626;8.978;2023-02-26T09:09:06;7.95;;;1.48;;
27025;SDS011;14565;48.626;8.978;2023-02-26T09:11:32;2.38;;;1.08;;
27025;SDS011;14565;48.626;8.978;2023-02-26T09:13:58;3.70;;;1.27;;
27025;SDS011;14565;48.626;8.978;2023-02-26T09:16:26;2.72;;;1.25;;
27025;SDS011;14565;48.626;8.978;2023-02-26T09:18:51;3.05;;;1.27;;
27025;SDS011;14565;48.626;8.978;2023-02-26T09:21:17;2.35;;;1.23;;
27025;SDS011;14565;48.626;8.978;2023-02-26T09:23:43;2.20;;;0.85;;
27025;SDS011;14565;48.626;8.978;2023-02-26T09:26:08;4.18;;;1.20;;
27025;SDS011;14565;48.626;8.978;2023-02-26T09:28:34;3.83;;;1.20;;
27025;SDS011;14565;48.626;8.978;2023-02-26T09:31:00;3.88;;;1.20;;
27025;SDS011;14565;48.626;8.978;2023-02-26T09:33:26;6.00;;;1.33;;
27025;SDS011;14565;48.626;8.978;2023-02-26T09:35:51;5.43;;;1.10;;
27025;SDS011;14565;48.626;8.978;2023-02-26T09:38:17;2.90;;;1.27;;
27025;SDS011;14565;48.626;8.978;2023-02-26T09:40:49;3.75;;;1.33;;
27025;SDS011;14565;48.626;8.978;2023-02-26T09:45:43;3.70;;;1.33;;
27025;SDS011;14565;48.626;8.978;2023-02-26T09:48:11;2.63;;;1.50;;
27025;SDS011;14565;48.626;8.978;2023-02-26T09:50:45;2.65;;;1.48;;
27025;SDS011;14565;48.626;8.978;2023-02-26T09:53:19;3.70;;;1.92;;
27025;SDS011;14565;48.626;8.978;2023-02-26T09:56:03;2.78;;;1.58;;
27025;SDS011;14565;48.626;8.978;2023-02-26T09:58:36;5.65;;;1.45;;
27025;SDS011;14565;48.626;8.978;2023-02-26T10:12:29;5.55;;;1.70;;
27025;SDS011;14565;48.626;8.978;2023-02-26T10:15:05;3.05;;;1.13;;
27025;SDS011;14565;48.626;8.978;2023-02-26T10:17:51;2.78;;;0.85;;
27025;SDS011;14565;48.626;8.978;2023-02-26T10:28:55;2.05;;;0.95;;
27025;SDS011;14565;48.626;8.978;2023-02-26T10:31:38;2.78;;;1.55;;
27025;SDS011;14565;48.626;8.978;2023-02-26T10:39:22;2.03;;;1.20;;
27025;SDS011;14565;48.626;8.978;2023-02-26T10:42:13;4.28;;;1.27;;
27025;SDS011;14565;48.626;8.978;2023-02-26T10:45:01;2.88;;;1.40;;
27025;SDS011;14565;48.626;8.978;2023-02-26T10:50:53;3.40;;;1.23;;
27025;SDS011;14565;48.626;8.978;2023-02-26T10:53:21;4.60;;;1.48;;
27025;SDS011;14565;48.626;8.978;2023-02-26T10:55:52;3.20;;;1.48;;
27025;SDS011;14565;48.626;8.978;2023-02-26T10:58:35;2.15;;;1.38;;
27025;SDS011;14565;48.626;8.978;2023-02-26T11:01:03;3.08;;;1.30;;
27025;SDS011;14565;48.626;8.978;2023-02-26T11:03:42;3.08;;;1.60;;
27025;SDS011;14565;48.626;8.978;2023-02-26T11:06:11;2.95;;;1.60;;
27025;SDS011;14565;48.626;8.978;2023-02-26T11:08:45;2.38;;;1.45;;
27025;SDS011;14565;48.626;8.978;2023-02-26T11:14:00;3.05;;;1.30;;
27025;SDS011;14565;48.626;8.978;2023-02-26T11:16:26;2.00;;;1.17;;
27025;SDS011;14565;48.626;8.978;2023-02-26T11:18:53;6.90;;;1.20;;
27025;SDS011;14565;48.626;8.978;2023-02-26T11:21:24;2.28;;;1.25;;
27025;SDS011;14565;48.626;8.978;2023-02-26T11:24:02;3.35;;;1.40;;
27025;SDS011;14565;48.626;8.978;2023-02-26T11:26:33;3.53;;;1.40;;
27025;SDS011;14565;48.626;8.978;2023-02-26T11:29:00;3.92;;;1.40;;
27025;SDS011;14565;48.626;8.978;2023-02-26T11:31:26;1.95;;;1.17;;
27025;SDS011;14565;48.626;8.978;2023-02-26T11:34:04;1.33;;;1.10;;
27025;SDS011;14565;48.626;8.978;2023-02-26T11:36:32;4.43;;;1.30;;
27025;SDS011;14565;48.626;8.978;2023-02-26T11:39:04;2.50;;;1.23;;
27025;SDS011;14565;48.626;8.978;2023-02-26T11:41:38;1.50;;;1.08;;
27025;SDS011;14565;48.626;8.978;2023-02-26T11:44:11;1.50;;;1.00;;
27025;SDS011;14565;48.626;8.978;2023-02-26T11:46:58;1.35;;;0.93;;
27025;SDS011;14565;48.626;8.978;2023-02-26T11:49:29;2.03;;;1.02;;
27025;SDS011;14565;48.626;8.978;2023-02-26T11:54:44;2.90;;;1.40;;
27025;SDS011;14565;48.626;8.978;2023-02-26T11:57:23;4.67;;;1.30;;
27025;SDS011;14565;48.626;8.978;2023-02-26T11:59:50;3.70;;;1.40;;
27025;SDS011;14565;48.626;8.978;2023-02-26T12:02:21;5.67;;;1.60;;
27025;SDS011;14565;48.626;8.978;2023-02-26T12:04:49;2.33;;;0.90;;
27025;SDS011;14565;48.626;8.978;2023-02-26T12:07:17;2.35;;;1.23;;
27025;SDS011;14565;48.626;8.978;2023-02-26T12:09:44;4.05;;;1.70;;
27025;SDS011;14565;48.626;8.978;2023-02-26T12:14:46;2.33;;;1.27;;
27025;SDS011;14565;48.626;8.978;2023-02-26T12:42:44;2.65;;;1.23;;
27025;SDS011;14565;48.626;8.978;2023-02-26T13:12:00;1.77;;;1.00;;
27025;SDS011;14565;48.626;8.978;2023-02-26T13:14:50;2.58;;;1.30;;
27025;SDS011;14565;48.626;8.978;2023-02-26T13:22:53;2.65;;;1.00;;
27025;SDS011;14565;48.626;8.978;2023-02-26T13:25:21;2.53;;;1.10;;
27025;SDS011;14565;48.626;8.978;2023-02-26T13:30:51;1.17;;;0.88;;
27025;SDS011;14565;48.626;8.978;2023-02-26T13:33:22;6.20;;;1.20;;
27025;SDS011;14565;48.626;8.978;2023-02-26T13:35:55;2.63;;;0.75;;
27025;SDS011;14565;48.626;8.978;2023-02-26T13:38:37;2.42;;;1.45;;
27025;SDS011;14565;48.626;8.978;2023-02-26T13:49:22;4.22;;;2.05;;
27025;SDS011;14565;48.626;8.978;2023-02-26T13:51:59;2.30;;;1.10;;
27025;SDS011;14565;48.626;8.978;2023-02-26T13:54:32;2.25;;;1.20;;
27025;SDS011;14565;48.626;8.978;2023-02-26T14:02:47;1.75;;;1.10;;
27025;SDS011;14565;48.626;8.978;2023-02-26T14:05:29;1.60;;;0.85;;
27025;SDS011;14565;48.626;8.978;2023-02-26T14:13:16;1.60;;;1.10;;
27025;SDS011;14565;48.626;8.978;2023-02-26T14:21:45;1.60;;;0.68;;
27025;SDS011;14565;48.626;8.978;2023-02-26T14:32:25;1.40;;;0.70;;
27025;SDS011;14565;48.626;8.978;2023-02-26T14:35:02;1.98;;;1.20;;
27025;SDS011;14565;48.626;8.978;2023-02-26T14:37:34;1.63;;;0.70;;
27025;SDS011;14565;48.626;8.978;2023-02-26T14:40:05;2.28;;;0.80;;
27025;SDS011;14565;48.626;8.978;2023-02-26T14:42:45;1.50;;;0.70;;
27025;SDS011;14565;48.626;8.978;2023-02-26T14:47:41;1.42;;;0.68;;
27025;SDS011;14565;48.626;8.978;2023-02-26T14:50:10;3.22;;;0.95;;
27025;SDS011;14565;48.626;8.978;2023-02-26T14:55:39;3.63;;;0.73;;
27025;SDS011;14565;48.626;8.978;2023-02-26T15:17:39;1.02;;;0.60;;
27025;SDS011;14565;48.626;8.978;2023-02-26T15:30:51;0.63;;;0.50;;
27025;SDS011;14565;48.626;8.978;2023-02-26T15:33:19;1.60;;;0.60;;
27025;SDS011;14565;48.626;8.978;2023-02-26T15:35:47;0.90;;;0.60;;
27025;SDS011;14565;48.626;8.978;2023-02-26T15:38:15;1.60;;;0.60;;
27025;SDS011;14565;48.626;8.978;2023-02-26T15:40:41;1.13;;;0.50;;
27025;SDS011;14565;48.626;8.978;2023-02-26T15:43:08;1.17;;;0.60;;
27025;SDS011;14565;48.626;8.978;2023-02-26T15:45:40;0.70;;;0.60;;
27025;SDS011;14565;48.626;8.978;2023-02-26T15:50:59;1.73;;;0.80;;
27025;SDS011;14565;48.626;8.978;2023-02-26T15:53:40;0.40;;;0.40;;
27025;SDS011;14565;48.626;8.978;2023-02-26T15:56:13;0.57;;;0.50;;
27025;SDS011;14565;48.626;8.978;2023-02-26T15:58:54;1.75;;;0.80;;
27025;SDS011;14565;48.626;8.978;2023-02-26T16:01:24;0.85;;;0.60;;
27025;SDS011;14565;48.626;8.978;2023-02-26T16:03:54;1.73;;;0.68;;
27025;SDS011;14565;48.626;8.978;2023-02-26T16:08:55;2.08;;;0.70;;
27025;SDS011;14565;48.626;8.978;2023-02-26T16:11:22;1.90;;;0.95;;
27025;SDS011;14565;48.626;8.978;2023-02-26T16:13:51;1.00;;;0.60;;
27025;SDS011;14565;48.626;8.978;2023-02-26T16:16:20;2.70;;;0.98;;
27025;SDS011;14565;48.626;8.978;2023-02-26T16:18:49;1.73;;;0.77;;
27025;SDS011;14565;48.626;8.978;2023-02-26T16:21:27;2.10;;;0.98;;
27025;SDS011;14565;48.626;8.978;2023-02-26T16:23:59;4.35;;;0.60;;
27025;SDS011;14565;48.626;8.978;2023-02-26T16:26:28;2.00;;;1.02;;
27025;SDS011;14565;48.626;8.978;2023-02-26T16:28:59;1.42;;;0.90;;
27025;SDS011;14565;48.626;8.978;2023-02-26T16:31:29;1.98;;;0.98;;
27025;SDS011;14565;48.626;8.978;2023-02-26T16:34:01;1.33;;;0.85;;
27025;SDS011;14565;48.626;8.978;2023-02-26T16:36:30;1.15;;;0.70;;
27025;SDS011;14565;48.626;8.978;2023-02-26T16:41:34;1.48;;;0.68;;
27025;SDS011;14565;48.626;8.978;2023-02-26T16:44:03;2.38;;;0.70;;
27025;SDS011;14565;48.626;8.978;2023-02-26T16:46:49;1.30;;;0.60;;
27025;SDS011;14565;48.626;8.978;2023-02-26T16:49:23;1.20;;;0.90;;
27025;SDS011;14565;48.626;8.978;2023-02-26T16:51:57;1.60;;;0.57;;
27025;SDS011;14565;48.626;8.978;2023-02-26T16:54:26;3.03;;;0.70;;
27025;SDS011;14565;48.626;8.978;2023-02-26T16:56:57;3.33;;;0.68;;
27025;SDS011;14565;48.626;8.978;2023-02-26T16:59:30;2.83;;;0.57;;
27025;SDS011;14565;48.626;8.978;2023-02-26T17:02:41;1.90;;;0.55;;
27025;SDS011;14565;48.626;8.978;2023-02-26T17:04:56;2.28;;;0.85;;
27025;SDS011;14565;48.626;8.978;2023-02-26T17:07:32;1.00;;;0.60;;
27025;SDS011;14565;48.626;8.978;2023-02-26T17:10:05;1.48;;;0.70;;
27025;SDS011;14565;48.626;8.978;2023-02-26T17:12:48;1.73;;;0.77;;
27025;SDS011;14565;48.626;8.978;2023-02-26T17:15:19;1.27;;;0.60;;
27025;SDS011;14565;48.626;8.978;2023-02-26T17:17:52;1.58;;;0.60;;
27025;SDS011;14565;48.626;8.978;2023-02-26T17:20:21;0.88;;;0.45;;
27025;SDS011;14565;48.626;8.978;2023-02-26T17:22:47;2.65;;;0.73;;
27025;SDS011;14565;48.626;8.978;2023-02-26T17:25:14;1.58;;;0.70;;
27025;SDS011;14565;48.626;8.978;2023-02-26T17:27:41;3.70;;;0.70;;
27025;SDS011;14565;48.626;8.978;2023-02-26T17:30:10;0.80;;;0.60;;
27025;SDS011;14565;48.626;8.978;2023-02-26T17:32:44;1.17;;;0.60;;
27025;SDS011;14565;48.626;8.978;2023-02-26T17:35:14;1.42;;;0.82;;
27025;SDS011;14565;48.626;8.978;2023-02-26T17:37:41;1.15;;;0.60;;
27025;SDS011;14565;48.626;8.978;2023-02-26T17:42:43;1.75;;;0.82;;
27025;SDS011;14565;48.626;8.978;2023-02-26T17:45:09;1.35;;;0.80;;
27025;SDS011;14565;48.626;8.978;2023-02-26T17:47:35;1.00;;;0.70;;
27025;SDS011;14565;48.626;8.978;2023-02-26T17:50:00;2.65;;;0.90;;
27025;SDS011;14565;48.626;8.978;2023-02-26T17:52:26;1.55;;;0.82;;
27025;SDS011;14565;48.626;8.978;2023-02-26T17:54:52;2.33;;;0.70;;
27025;SDS011;14565;48.626;8.978;2023-02-26T17:57:18;1.67;;;0.80;;
27025;SDS011;14565;48.626;8.978;2023-02-26T18:02:15;1.45;;;0.75;;
27025;SDS011;14565;48.626;8.978;2023-02-26T18:04:44;2.85;;;0.80;;
27025;SDS011;14565;48.626;8.978;2023-02-26T18:07:11;1.23;;;0.60;;
27025;SDS011;14565;48.626;8.978;2023-02-26T18:09:40;1.67;;;0.70;;
27025;SDS011;14565;48.626;8.978;2023-02-26T18:12:09;1.00;;;0.65;;
27025;SDS011;14565;48.626;8.978;2023-02-26T18:14:41;1.38;;;0.70;;
27025;SDS011;14565;48.626;8.978;2023-02-26T18:17:17;1.30;;;0.70;;
27025;SDS011;14565;48.626;8.978;2023-02-26T18:19:46;1.38;;;0.47;;
27025;SDS011;14565;48.626;8.978;2023-02-26T18:22:17;1.27;;;0.60;;
27025;SDS011;14565;48.626;8.978;2023-02-26T18:24:44;1.55;;;0.70;;
27025;SDS011;14565;48.626;8.978;2023-02-26T18:27:14;2.38;;;0.90;;
27025;SDS011;14565;48.626;8.978;2023-02-26T18:29:41;0.85;;;0.55;;
27025;SDS011;14565;48.626;8.978;2023-02-26T18:32:26;1.38;;;0.60;;
27025;SDS011;14565;48.626;8.978;2023-02-26T18:34:52;1.75;;;0.70;;
27025;SDS011;14565;48.626;8.978;2023-02-26T18:37:19;2.25;;;0.93;;
27025;SDS011;14565;48.626;8.978;2023-02-26T18:39:47;1.52;;;0.60;;
27025;SDS011;14565;48.626;8.978;2023-02-26T18:42:17;2.17;;;0.60;;
27025;SDS011;14565;48.626;8.978;2023-02-26T18:44:45;4.53;;;0.75;;
27025;SDS011;14565;48.626;8.978;2023-02-26T18:47:12;1.30;;;0.70;;
27025;SDS011;14565;48.626;8.978;2023-02-26T18:49:38;0.85;;;0.40;;
27025;SDS011;14565;48.626;8.978;2023-02-26T18:52:03;2.05;;;0.50;;
27025;SDS011;14565;48.626;8.978;2023-02-26T18:54:29;1.58;;;0.63;;
27025;SDS011;14565;48.626;8.978;2023-02-26T18:56:55;1.80;;;0.70;;
27025;SDS011;14565;48.626;8.978;2023-02-26T18:59:20;2.55;;;0.50;;
27025;SDS011;14565;48.626;8.978;2023-02-26T19:01:46;1.67;;;0.60;;
27025;SDS011;14565;48.626;8.978;2023-02-26T19:04:12;0.65;;;0.50;;
27025;SDS011;14565;48.626;8.978;2023-02-26T19:06:38;0.80;;;0.60;;
27025;SDS011;14565;48.626;8.978;2023-02-26T19:09:04;1.38;;;0.57;;
27025;SDS011;14565;48.626;8.978;2023-02-26T19:11:30;1.02;;;0.52;;
27025;SDS011;14565;48.626;8.978;2023-02-26T19:13:55;1.65;;;0.63;;
27025;SDS011;14565;48.626;8.978;2023-02-26T19:16:21;0.82;;;0.52;;
27025;SDS011;14565;48.626;8.978;2023-02-26T19:18:48;0.60;;;0.50;;
27025;SDS011;14565;48.626;8.978;2023-02-26T19:21:14;2.00;;;0.70;;
27025;SDS011;14565;48.626;8.978;2023-02-26T19:23:40;5.72;;;1.67;;